Sunday, November 19, 2017 | Login

MSCNDR

MEMBER LOGIN

Username:

Password:

Remember me



Lost Password?

Register now!

Forecast for your location

Detailed conditions for your location

Current US satellite images

Current US radar image

Current US warnings and watches

Various US weather maps

The raw METAR code for this location is KMEM 300054Z 12005KT 10SM -RA SCT110 BKN150 BKN200 24/22 A2993 RMK AO2 RAB05 PRESFR SLP130 P0005 T02390217

Decoded METAR for this location (may not be available)

OPS STATUS

ROUTINE

LOCAL WEATHER

Memphis
Conditions as of
ago494 hours 44 minutes
mostly cloudy, light rain
Temp: 75 °F
Feels like: 74 °F
Rel hum: 89 %
Dewpt: 72 °F
29.93 inHg falling rapidly
Wind: SE at 5.8 m/h Precip: 0.05 in
view forecast

PARTNERSHIPS